Time;durP1;ratioP1;P1;durP2;ratioP2;P2;SDS_P1;SDS_P2;PMS_P1;PMS_P2;Temp;Humidity;BMP_temperature;BMP_pressure;BME280_temperature;BME280_humidity;BME280_pressure;Samples;Min_cycle;Max_cycle;Signal;HPM_P1;HPM_P2
2023/09/08 00:00:58;;;;;;;4.53;2.90;;;23.00;93.90;;;;;;4994073;28;20209;-77
2023/09/08 00:03:24;;;;;;;4.50;3.83;;;23.00;94.30;;;;;;4993430;28;20206;-78
2023/09/08 00:05:50;;;;;;;3.67;3.10;;;23.00;94.10;;;;;;4993734;28;20233;-78
2023/09/08 00:08:15;;;;;;;3.50;2.70;;;22.90;94.30;;;;;;4976242;28;20654;-78
2023/09/08 00:10:41;;;;;;;5.67;4.30;;;22.90;94.40;;;;;;4994517;28;20226;-77
2023/09/08 00:13:07;;;;;;;4.40;3.60;;;22.90;94.90;;;;;;4977315;28;20214;-77
2023/09/08 00:15:36;;;;;;;5.73;3.23;;;22.80;94.80;;;;;;4977211;28;20616;-77
2023/09/08 00:18:02;;;;;;;4.07;3.10;;;22.80;95.30;;;;;;4991450;28;20228;-77
2023/09/08 00:20:28;;;;;;;5.10;3.67;;;22.80;95.20;;;;;;4989993;28;20687;-77
2023/09/08 00:22:54;;;;;;;5.80;3.83;;;22.70;95.40;;;;;;4994344;28;20586;-77
2023/09/08 00:25:20;;;;;;;5.90;3.73;;;22.70;95.40;;;;;;5001140;28;20557;-77
2023/09/08 00:27:45;;;;;;;3.60;3.23;;;22.70;95.60;;;;;;4994983;28;20248;-77
2023/09/08 00:30:12;;;;;;;6.93;2.97;;;22.70;96.00;;;;;;5014954;28;20198;-77
2023/09/08 00:32:38;;;;;;;4.63;3.33;;;22.60;96.00;;;;;;5009918;28;20205;-77
2023/09/08 00:35:06;;;;;;;3.93;3.23;;;22.60;96.70;;;;;;4992490;28;20606;-77
2023/09/08 00:37:32;;;;;;;4.10;3.17;;;22.50;96.90;;;;;;4996514;28;20162;-77
2023/09/08 00:39:57;;;;;;;3.97;3.47;;;22.50;97.00;;;;;;5012053;28;21347;-77
2023/09/08 00:42:23;;;;;;;5.83;3.33;;;22.40;97.20;;;;;;4998737;28;20178;-77
2023/09/08 00:44:49;;;;;;;5.43;3.13;;;22.40;97.00;;;;;;4995860;28;20213;-77
2023/09/08 00:47:15;;;;;;;3.40;2.77;;;22.40;97.70;;;;;;4994023;28;20239;-77
2023/09/08 00:49:41;;;;;;;8.43;3.63;;;22.40;97.40;;;;;;4988361;28;20672;-77
2023/09/08 00:52:07;;;;;;;4.10;3.43;;;22.30;98.10;;;;;;4990824;28;21203;-77
2023/09/08 00:54:33;;;;;;;4.40;3.30;;;22.30;98.20;;;;;;4974450;28;20586;-78
2023/09/08 00:57:03;;;;;;;4.03;2.57;;;22.20;98.00;;;;;;4991742;28;20597;-78
2023/09/08 00:59:31;;;;;;;6.30;3.40;;;22.20;98.70;;;;;;4974236;28;20666;-78
2023/09/08 01:01:57;;;;;;;4.50;3.10;;;22.20;98.40;;;;;;4990520;28;20582;-78
2023/09/08 01:04:23;;;;;;;4.10;3.40;;;22.20;98.50;;;;;;4995181;28;21033;-78
2023/09/08 01:06:49;;;;;;;4.60;3.80;;;22.10;99.10;;;;;;4999837;28;20183;-78
2023/09/08 01:09:16;;;;;;;3.47;3.07;;;22.10;99.20;;;;;;4973823;28;20174;-79
2023/09/08 01:11:42;;;;;;;7.63;4.80;;;22.00;99.10;;;;;;4972876;28;20646;-79
2023/09/08 01:14:08;;;;;;;3.73;3.20;;;21.90;99.20;;;;;;4972042;28;20732;-78
2023/09/08 01:16:34;;;;;;;4.97;3.03;;;21.90;99.40;;;;;;4989457;28;20726;-79
2023/09/08 01:19:00;;;;;;;4.00;3.30;;;21.80;99.50;;;;;;4989503;28;20641;-78
2023/09/08 01:21:43;;;;;;;4.30;3.53;;;21.80;99.80;;;;;;4973512;28;20182;-78
2023/09/08 01:24:23;;;;;;;5.27;3.33;;;21.70;99.90;;;;;;4965515;28;20601;-78
2023/09/08 01:26:49;;;;;;;4.73;3.77;;;21.70;99.90;;;;;;4989517;28;20593;-78
2023/09/08 01:29:16;;;;;;;4.63;3.17;;;21.60;99.90;;;;;;4989449;28;20592;-78
2023/09/08 01:31:44;;;;;;;4.33;3.50;;;21.60;99.90;;;;;;4986823;28;20563;-78
2023/09/08 01:34:11;;;;;;;4.60;3.90;;;21.50;99.90;;;;;;5005074;28;20613;-78
2023/09/08 01:36:37;;;;;;;4.40;4.00;;;21.50;99.90;;;;;;4973721;28;20637;-78
2023/09/08 01:39:03;;;;;;;5.00;4.10;;;21.50;99.90;;;;;;4988285;28;20581;-78
2023/09/08 01:41:31;;;;;;;5.60;3.70;;;21.40;99.90;;;;;;5008150;28;20183;-78
2023/09/08 01:43:57;;;;;;;3.63;2.93;;;21.40;99.90;;;;;;4977566;28;20605;-78
2023/09/08 01:46:23;;;;;;;8.07;4.63;;;21.40;99.90;;;;;;5003974;28;20604;-77
2023/09/08 01:48:49;;;;;;;5.43;4.20;;;21.40;99.90;;;;;;4980224;28;21421;-77
2023/09/08 01:51:14;;;;;;;4.80;3.97;;;21.30;99.90;;;;;;4994792;28;20618;-77
2023/09/08 01:53:40;;;;;;;4.77;4.00;;;21.30;99.90;;;;;;4985207;28;20171;-78
2023/09/08 01:56:09;;;;;;;4.93;3.40;;;21.20;99.90;;;;;;4976701;28;20209;-77
2023/09/08 01:58:34;;;;;;;4.33;3.90;;;21.20;99.90;;;;;;4999715;28;20179;-77
2023/09/08 02:01:05;;;;;;;5.90;3.80;;;21.20;99.90;;;;;;4992691;28;20608;-78
2023/09/08 02:03:32;;;;;;;5.50;4.10;;;21.10;99.90;;;;;;4984815;28;20175;-77
2023/09/08 02:06:00;;;;;;;4.13;3.73;;;21.10;99.90;;;;;;4991975;28;20592;-76
2023/09/08 02:08:26;;;;;;;5.83;3.90;;;21.00;99.90;;;;;;4976766;28;20578;-78
2023/09/08 02:10:52;;;;;;;5.27;3.70;;;21.00;99.90;;;;;;5006812;28;20628;-78
2023/09/08 02:13:18;;;;;;;4.33;3.90;;;21.00;99.90;;;;;;4982883;28;20207;-78
2023/09/08 02:15:44;;;;;;;3.97;3.40;;;21.00;99.90;;;;;;4990068;28;20882;-78
2023/09/08 02:18:09;;;;;;;4.83;3.47;;;21.00;99.90;;;;;;4983194;28;20288;-78
2023/09/08 02:20:36;;;;;;;4.13;3.77;;;21.00;99.90;;;;;;4971216;28;20636;-78
2023/09/08 02:23:07;;;;;;;6.47;3.60;;;21.00;99.90;;;;;;4984552;28;20555;-78
2023/09/08 02:25:33;;;;;;;5.40;3.70;;;21.00;99.90;;;;;;4980262;28;20589;-79
2023/09/08 02:27:59;;;;;;;4.93;4.47;;;20.90;99.90;;;;;;4979368;28;20697;-78
2023/09/08 02:30:25;;;;;;;5.27;3.00;;;20.90;99.90;;;;;;4985689;28;20626;-79
2023/09/08 02:32:51;;;;;;;4.23;3.50;;;20.90;99.90;;;;;;4992547;28;20285;-78
2023/09/08 02:35:17;;;;;;;4.30;3.90;;;20.90;99.90;;;;;;4978276;28;20590;-79
2023/09/08 02:37:43;;;;;;;6.10;4.00;;;20.90;99.90;;;;;;5003619;28;21028;-79
2023/09/08 02:40:09;;;;;;;5.00;4.50;;;20.80;99.90;;;;;;4978670;28;20269;-78
2023/09/08 02:42:36;;;;;;;9.03;4.53;;;20.80;99.90;;;;;;4988768;28;20186;-79
2023/09/08 02:45:02;;;;;;;4.60;4.17;;;20.80;99.90;;;;;;4996697;28;20590;-78
2023/09/08 02:47:28;;;;;;;4.87;4.47;;;20.80;99.90;;;;;;4997613;28;20637;-78
2023/09/08 02:49:54;;;;;;;7.20;4.37;;;20.70;99.90;;;;;;4990402;28;21021;-78
2023/09/08 02:52:20;;;;;;;6.93;3.83;;;20.70;99.90;;;;;;4993903;28;20639;-78
2023/09/08 02:54:46;;;;;;;6.07;4.43;;;20.70;99.90;;;;;;4994512;28;20282;-78
2023/09/08 02:57:12;;;;;;;8.60;3.67;;;20.70;99.90;;;;;;4994323;28;20525;-78
2023/09/08 02:59:39;;;;;;;3.73;3.00;;;20.60;99.90;;;;;;4971393;28;20670;-77
2023/09/08 03:02:08;;;;;;;4.17;3.77;;;20.60;99.90;;;;;;4979027;28;20695;-77
2023/09/08 03:04:33;;;;;;;6.53;4.23;;;20.60;99.90;;;;;;4993346;28;20720;-77
2023/09/08 03:06:59;;;;;;;4.47;3.07;;;20.60;99.90;;;;;;4974290;28;20716;-77
2023/09/08 03:09:25;;;;;;;3.70;3.30;;;20.60;99.90;;;;;;4987085;28;20553;-77
2023/09/08 03:11:50;;;;;;;4.50;3.80;;;20.60;99.90;;;;;;4975799;28;20214;-77
2023/09/08 03:14:16;;;;;;;6.47;3.50;;;20.60;99.90;;;;;;4975559;28;20181;-77
2023/09/08 03:16:42;;;;;;;5.50;3.77;;;20.60;99.90;;;;;;4967590;28;20175;-77
2023/09/08 03:19:08;;;;;;;4.40;3.60;;;20.60;99.90;;;;;;4988254;28;20187;-77
2023/09/08 03:21:34;;;;;;;5.43;3.70;;;20.50;99.90;;;;;;4999927;28;21156;-77
2023/09/08 03:23:59;;;;;;;4.13;3.57;;;20.60;99.90;;;;;;4992711;28;20617;-77
2023/09/08 03:26:25;;;;;;;6.50;3.63;;;20.50;99.90;;;;;;4985953;28;20213;-77
2023/09/08 03:28:52;;;;;;;6.30;3.80;;;20.50;99.90;;;;;;4972607;28;20182;-76
2023/09/08 03:31:18;;;;;;;3.00;2.60;;;20.50;99.90;;;;;;4975474;28;20684;-77
2023/09/08 03:33:43;;;;;;;4.00;3.47;;;20.50;99.90;;;;;;4993007;28;20179;-77
2023/09/08 03:36:10;;;;;;;4.97;4.00;;;20.50;99.90;;;;;;4975042;28;21173;-77
2023/09/08 03:38:37;;;;;;;4.37;3.03;;;20.50;99.90;;;;;;4979996;28;20665;-77
2023/09/08 03:41:03;;;;;;;4.87;4.47;;;20.50;99.90;;;;;;4990137;28;20232;-77
2023/09/08 03:43:28;;;;;;;6.27;3.87;;;20.50;99.90;;;;;;5001484;28;20588;-77
2023/09/08 03:45:54;;;;;;;4.90;3.40;;;20.40;99.90;;;;;;4966861;28;20178;-78
2023/09/08 03:48:21;;;;;;;4.03;3.30;;;20.40;99.90;;;;;;4992763;28;20581;-78
2023/09/08 03:50:47;;;;;;;6.10;4.10;;;20.40;99.90;;;;;;4987991;28;20813;-76
2023/09/08 03:53:14;;;;;;;5.10;3.90;;;20.40;99.90;;;;;;4977663;28;20252;-78
2023/09/08 03:55:40;;;;;;;3.93;3.40;;;20.40;99.90;;;;;;4970503;28;20692;-78
2023/09/08 03:58:05;;;;;;;5.17;3.87;;;20.50;99.90;;;;;;4976460;28;20643;-78
2023/09/08 04:00:31;;;;;;;5.93;3.43;;;20.50;99.90;;;;;;4989012;28;20289;-78
2023/09/08 04:02:57;;;;;;;5.90;3.87;;;20.40;99.90;;;;;;4974855;28;21167;-78
2023/09/08 04:05:23;;;;;;;4.60;3.50;;;20.50;99.90;;;;;;4992278;28;20190;-78
2023/09/08 04:07:48;;;;;;;3.40;3.10;;;20.50;99.90;;;;;;4977683;28;20638;-79
2023/09/08 04:10:14;;;;;;;6.80;3.70;;;20.40;99.90;;;;;;4974372;28;20261;-79
2023/09/08 04:12:41;;;;;;;6.00;4.03;;;20.40;99.90;;;;;;4974460;28;21055;-79
2023/09/08 04:15:08;;;;;;;5.40;3.30;;;20.40;99.90;;;;;;4975753;28;20188;-79
2023/09/08 04:17:35;;;;;;;3.57;3.10;;;20.40;99.90;;;;;;4999728;28;20586;-78
2023/09/08 04:20:06;;;;;;;4.27;3.87;;;20.40;99.90;;;;;;4990719;28;20617;-79
2023/09/08 04:22:32;;;;;;;4.50;3.83;;;20.40;99.90;;;;;;4980282;28;20604;-78
2023/09/08 04:25:01;;;;;;;5.90;4.07;;;20.40;99.90;;;;;;4988805;28;21136;-79
2023/09/08 04:27:28;;;;;;;4.43;3.57;;;20.40;99.90;;;;;;4975180;28;20615;-78
2023/09/08 04:29:53;;;;;;;4.43;3.30;;;20.40;99.90;;;;;;4971428;28;20609;-78
2023/09/08 04:32:19;;;;;;;4.17;3.77;;;20.40;99.90;;;;;;4992489;28;20256;-79
2023/09/08 04:34:45;;;;;;;6.30;4.27;;;20.40;99.90;;;;;;4986533;28;20253;-78
2023/09/08 04:37:10;;;;;;;4.67;3.70;;;20.40;99.90;;;;;;5001557;28;20209;-78
2023/09/08 04:39:39;;;;;;;4.50;3.23;;;20.40;99.90;;;;;;4990007;28;20202;-78
2023/09/08 04:42:06;;;;;;;5.93;4.00;;;20.40;99.90;;;;;;4975535;28;20587;-78
2023/09/08 04:44:32;;;;;;;6.17;3.50;;;20.40;99.90;;;;;;5003650;28;20583;-79
2023/09/08 04:46:59;;;;;;;5.63;3.50;;;20.40;99.90;;;;;;5001390;28;20602;-78
2023/09/08 04:49:25;;;;;;;4.63;3.30;;;20.40;99.90;;;;;;4991027;28;20668;-78
2023/09/08 04:51:51;;;;;;;5.90;4.13;;;20.40;99.90;;;;;;4973313;28;20630;-78
2023/09/08 04:54:19;;;;;;;5.23;4.07;;;20.40;99.90;;;;;;4990049;28;20595;-77
2023/09/08 04:56:47;;;;;;;4.63;4.10;;;20.40;99.90;;;;;;4957650;28;21218;-77
2023/09/08 04:59:13;;;;;;;4.50;3.90;;;20.40;99.90;;;;;;4973714;28;21268;-77
2023/09/08 05:01:40;;;;;;;5.37;3.60;;;20.40;99.90;;;;;;4990162;28;20612;-77
2023/09/08 05:04:07;;;;;;;4.80;3.93;;;20.40;99.90;;;;;;4989904;28;20202;-76
2023/09/08 05:06:32;;;;;;;5.47;4.13;;;20.40;99.90;;;;;;4989140;28;20593;-76
2023/09/08 05:08:59;;;;;;;4.30;3.90;;;20.40;99.90;;;;;;4969594;28;20617;-76
2023/09/08 05:11:27;;;;;;;5.80;3.93;;;20.40;99.90;;;;;;4989724;28;20756;-76
2023/09/08 05:13:53;;;;;;;5.63;3.47;;;20.40;99.90;;;;;;4990240;28;20589;-78
2023/09/08 05:16:25;;;;;;;7.93;4.10;;;20.40;99.90;;;;;;4989264;28;20608;-77
2023/09/08 05:18:51;;;;;;;4.20;3.80;;;20.40;99.90;;;;;;4991509;28;20733;-77
2023/09/08 05:21:18;;;;;;;5.93;4.27;;;20.40;99.90;;;;;;4993024;28;20618;-78
2023/09/08 05:23:43;;;;;;;6.60;4.23;;;20.30;99.90;;;;;;4973325;28;20952;-78
2023/09/08 05:26:10;;;;;;;4.63;4.13;;;20.40;99.90;;;;;;4989483;28;20266;-79
2023/09/08 05:28:37;;;;;;;5.97;4.43;;;20.40;99.90;;;;;;4989820;28;20653;-78
2023/09/08 05:31:04;;;;;;;5.43;3.73;;;20.30;99.90;;;;;;4989610;28;20614;-78
2023/09/08 05:33:30;;;;;;;5.47;4.50;;;20.30;99.90;;;;;;4965241;28;20525;-78
2023/09/08 05:35:55;;;;;;;6.10;4.03;;;20.40;99.90;;;;;;4999223;28;20645;-78
2023/09/08 05:38:21;;;;;;;5.63;3.80;;;20.40;99.90;;;;;;4979624;28;20194;-77
2023/09/08 05:40:47;;;;;;;5.20;2.87;;;20.40;99.90;;;;;;5000909;28;20206;-78
2023/09/08 05:43:14;;;;;;;7.13;3.80;;;20.40;99.90;;;;;;4993096;28;20601;-78
2023/09/08 05:45:40;;;;;;;5.10;4.40;;;20.40;99.90;;;;;;4992871;28;20612;-78
2023/09/08 05:48:06;;;;;;;7.33;3.97;;;20.40;99.90;;;;;;4995314;28;20590;-78
2023/09/08 05:50:32;;;;;;;4.40;3.60;;;20.50;99.90;;;;;;4973174;28;20209;-77
2023/09/08 05:52:58;;;;;;;4.57;3.47;;;20.50;99.90;;;;;;4987323;28;20628;-77
2023/09/08 05:55:24;;;;;;;3.80;3.33;;;20.60;99.90;;;;;;5012780;28;20645;-77
2023/09/08 05:57:49;;;;;;;3.90;3.50;;;20.60;99.90;;;;;;5009711;28;20560;-77
2023/09/08 06:00:17;;;;;;;8.07;3.60;;;20.60;99.90;;;;;;5002151;28;20535;-77
2023/09/08 06:02:47;;;;;;;5.33;3.67;;;20.70;99.90;;;;;;4989757;28;20183;-77
2023/09/08 06:05:15;;;;;;;6.17;5.33;;;20.70;99.90;;;;;;4989197;28;20688;-77
2023/09/08 06:07:40;;;;;;;5.37;3.70;;;20.70;99.90;;;;;;5008947;28;20720;-77
2023/09/08 06:10:08;;;;;;;5.43;3.80;;;20.80;99.90;;;;;;4992481;28;20226;-77
2023/09/08 06:12:37;;;;;;;5.07;4.27;;;20.90;99.90;;;;;;4984522;28;20633;-77
2023/09/08 06:15:06;;;;;;;7.30;4.47;;;20.90;99.90;;;;;;5008766;28;20597;-77
2023/09/08 06:17:33;;;;;;;5.20;4.00;;;20.90;99.90;;;;;;4989106;28;20578;-78
2023/09/08 06:19:59;;;;;;;5.70;3.63;;;21.00;99.90;;;;;;4973970;28;20649;-77
2023/09/08 06:22:26;;;;;;;4.80;3.70;;;21.10;99.90;;;;;;5012508;28;20589;-78
2023/09/08 06:24:52;;;;;;;4.97;3.43;;;21.10;99.90;;;;;;4996109;28;20600;-78
2023/09/08 06:27:21;;;;;;;4.00;3.53;;;21.20;99.90;;;;;;5003862;28;20597;-78
2023/09/08 06:29:47;;;;;;;4.63;4.03;;;21.30;99.90;;;;;;4996074;28;20639;-78
2023/09/08 06:32:14;;;;;;;4.13;3.73;;;21.40;99.90;;;;;;5016359;28;20640;-77
2023/09/08 06:34:42;;;;;;;6.30;3.67;;;21.50;99.90;;;;;;4996972;28;20651;-79
2023/09/08 06:37:08;;;;;;;5.00;4.00;;;21.50;99.90;;;;;;4996276;28;20600;-79
2023/09/08 06:39:34;;;;;;;7.10;3.77;;;21.60;99.90;;;;;;5014389;28;20616;-79
2023/09/08 06:42:01;;;;;;;5.73;3.37;;;21.70;99.90;;;;;;5013499;28;20178;-79
2023/09/08 06:44:27;;;;;;;5.30;3.40;;;21.80;99.90;;;;;;5024055;28;21157;-79
2023/09/08 06:46:53;;;;;;;6.63;3.70;;;21.90;99.90;;;;;;5013651;28;20206;-77
2023/09/08 06:49:19;;;;;;;5.53;3.57;;;22.10;99.90;;;;;;4992674;28;20233;-77
2023/09/08 06:51:47;;;;;;;3.50;3.20;;;22.50;99.90;;;;;;5000622;28;20653;-77
2023/09/08 06:54:13;;;;;;;4.80;3.60;;;23.10;99.90;;;;;;4989638;28;20650;-76
2023/09/08 06:56:42;;;;;;;4.30;2.83;;;23.80;99.90;;;;;;4988578;28;20617;-76
2023/09/08 06:59:08;;;;;;;3.73;3.07;;;24.50;99.90;;;;;;4976582;28;21150;-76
2023/09/08 07:01:35;;;;;;;3.40;2.60;;;25.30;99.90;;;;;;4983165;28;20597;-76
2023/09/08 07:04:01;;;;;;;5.80;3.37;;;26.30;99.90;;;;;;4992989;28;20601;-76
2023/09/08 07:06:27;;;;;;;4.07;2.70;;;27.10;99.90;;;;;;4983459;28;20602;-77
2023/09/08 07:08:54;;;;;;;3.77;3.37;;;27.90;99.90;;;;;;4961959;28;20685;-75
2023/09/08 07:11:20;;;;;;;3.70;2.70;;;28.60;99.90;;;;;;4976809;28;21044;-74
2023/09/08 07:13:47;;;;;;;3.97;2.73;;;29.20;99.90;;;;;;4972846;28;20690;-74
2023/09/08 07:16:13;;;;;;;4.27;2.80;;;29.80;99.90;;;;;;4971044;28;21019;-74
2023/09/08 07:18:39;;;;;;;3.27;2.50;;;30.50;99.90;;;;;;4966594;28;20672;-74
2023/09/08 07:21:07;;;;;;;2.80;2.40;;;31.10;97.90;;;;;;4991535;28;20623;-75
2023/09/08 07:23:33;;;;;;;3.07;2.40;;;31.60;97.00;;;;;;4992112;28;21192;-75
2023/09/08 07:25:59;;;;;;;2.40;1.87;;;32.10;96.20;;;;;;4985668;28;20192;-75
2023/09/08 07:28:28;;;;;;;2.27;2.07;;;32.70;95.30;;;;;;4973078;28;20616;-75
2023/09/08 07:31:06;;;;;;;3.77;2.87;;;33.10;91.10;;;;;;4971454;28;20634;-75
2023/09/08 07:33:36;;;;;;;3.13;2.17;;;33.30;88.20;;;;;;4973729;28;20640;-75
2023/09/08 07:36:07;;;;;;;3.27;2.40;;;33.40;84.30;;;;;;4958481;28;20590;-74
2023/09/08 07:38:34;;;;;;;7.30;2.53;;;33.60;81.40;;;;;;4971347;28;20598;-75
2023/09/08 07:41:02;;;;;;;4.60;3.00;;;33.70;76.90;;;;;;4950867;28;21137;-75
2023/09/08 07:43:29;;;;;;;3.33;2.50;;;33.60;73.50;;;;;;4974050;28;20956;-76
2023/09/08 07:45:55;;;;;;;3.70;2.77;;;33.70;74.40;;;;;;4971785;28;20598;-75
2023/09/08 07:48:20;;;;;;;3.87;2.30;;;34.00;73.00;;;;;;4953965;28;20652;-74
2023/09/08 07:50:46;;;;;;;3.90;2.77;;;34.20;72.00;;;;;;4968650;28;20557;-74
2023/09/08 07:53:12;;;;;;;4.93;2.63;;;34.30;69.00;;;;;;4981807;28;20207;-74
2023/09/08 07:55:38;;;;;;;4.33;2.53;;;34.30;64.90;;;;;;4974536;28;20269;-74
2023/09/08 07:58:05;;;;;;;3.63;3.00;;;34.00;62.40;;;;;;4977764;28;21077;-75
2023/09/08 08:00:31;;;;;;;3.80;2.67;;;34.00;63.90;;;;;;4985423;28;20661;-75
2023/09/08 08:02:57;;;;;;;5.33;2.70;;;34.10;64.20;;;;;;4977029;28;20188;-75
2023/09/08 08:05:24;;;;;;;7.20;2.40;;;34.10;63.50;;;;;;4980707;28;20601;-74
2023/09/08 08:07:50;;;;;;;5.90;2.80;;;34.30;62.10;;;;;;4955088;28;20639;-75
2023/09/08 08:10:17;;;;;;;4.03;2.60;;;34.30;60.60;;;;;;4971298;28;20651;-75
2023/09/08 08:12:43;;;;;;;4.47;2.80;;;34.50;60.90;;;;;;4976082;28;20642;-75
2023/09/08 08:15:10;;;;;;;3.60;2.37;;;34.60;59.30;;;;;;4963538;28;20646;-75
2023/09/08 08:17:36;;;;;;;4.20;2.10;;;34.70;60.20;;;;;;4970139;28;20651;-76
2023/09/08 08:20:09;;;;;;;7.03;2.83;;;34.90;58.90;;;;;;4981987;28;20606;-75
2023/09/08 08:22:35;;;;;;;6.90;2.70;;;35.10;57.60;;;;;;4967527;28;20634;-75
2023/09/08 08:25:01;;;;;;;4.20;3.13;;;35.30;58.30;;;;;;4978060;28;20597;-75
2023/09/08 08:27:27;;;;;;;4.97;2.60;;;35.30;56.70;;;;;;4976643;28;20599;-75
2023/09/08 08:29:53;;;;;;;3.87;2.70;;;35.40;57.40;;;;;;4979376;28;21325;-74
2023/09/08 08:32:18;;;;;;;3.43;3.07;;;35.50;56.80;;;;;;4970454;28;20211;-75
2023/09/08 08:34:44;;;;;;;6.00;2.30;;;35.80;56.50;;;;;;4982814;28;20240;-76
2023/09/08 08:37:11;;;;;;;4.37;2.50;;;35.90;55.30;;;;;;4980886;28;20254;-77
2023/09/08 08:39:36;;;;;;;7.40;3.00;;;36.10;55.30;;;;;;4979735;28;20639;-76
2023/09/08 08:42:12;;;;;;;4.30;2.57;;;36.30;54.50;;;;;;4977844;28;20603;-74
2023/09/08 08:44:39;;;;;;;4.17;2.30;;;36.40;53.90;;;;;;4981093;28;20197;-76
2023/09/08 08:47:07;;;;;;;2.63;2.17;;;36.50;53.10;;;;;;4967895;28;20606;-75
2023/09/08 08:49:33;;;;;;;2.67;2.00;;;36.60;53.20;;;;;;4966397;28;20627;-75
2023/09/08 08:52:03;;;;;;;3.80;2.70;;;36.70;53.10;;;;;;4985451;28;21236;-75
2023/09/08 08:54:29;;;;;;;3.80;2.43;;;36.80;52.20;;;;;;4982530;28;20689;-75
2023/09/08 08:56:56;;;;;;;6.33;2.10;;;36.90;52.20;;;;;;4973141;28;20705;-74
2023/09/08 08:59:22;;;;;;;3.10;2.10;;;37.20;52.00;;;;;;4990815;28;20944;-75
2023/09/08 09:01:48;;;;;;;2.93;2.23;;;37.40;51.90;;;;;;4988024;28;20705;-76
2023/09/08 09:04:15;;;;;;;2.93;2.20;;;37.70;50.70;;;;;;4973297;28;20593;-77
2023/09/08 09:06:42;;;;;;;2.60;2.27;;;37.70;49.40;;;;;;4979928;28;20602;-76
2023/09/08 09:09:08;;;;;;;4.83;2.13;;;37.80;50.50;;;;;;4985283;28;20609;-76
2023/09/08 09:11:34;;;;;;;2.90;2.10;;;38.00;50.00;;;;;;4987453;28;20986;-76
2023/09/08 09:13:59;;;;;;;5.40;2.63;;;38.10;50.40;;;;;;4989398;28;20603;-76
2023/09/08 09:16:26;;;;;;;7.07;2.17;;;38.40;49.60;;;;;;4988975;28;20175;-75
2023/09/08 09:18:59;;;;;;;7.50;2.60;;;38.70;49.40;;;;;;4980513;28;20168;-75
2023/09/08 09:21:44;;;;;;;2.37;2.00;;;38.80;46.80;;;;;;4972417;28;20685;-75
2023/09/08 09:24:27;;;;;;;2.80;2.10;;;39.00;48.30;;;;;;4984129;28;20960;-75
2023/09/08 09:26:53;;;;;;;5.70;3.00;;;39.30;49.60;;;;;;4987790;28;20594;-75
2023/09/08 09:29:19;;;;;;;2.43;1.67;;;39.60;47.80;;;;;;4988978;28;21186;-75
2023/09/08 09:31:57;;;;;;;2.50;1.97;;;39.80;47.50;;;;;;4981706;28;20218;-75
2023/09/08 09:34:24;;;;;;;3.57;2.43;;;40.20;47.60;;;;;;4957882;28;20597;-75
2023/09/08 09:36:51;;;;;;;2.90;2.40;;;40.30;47.50;;;;;;4970525;28;20602;-75
2023/09/08 09:39:21;;;;;;;7.17;2.90;;;40.50;45.70;;;;;;4978722;28;21012;-76
2023/09/08 09:41:48;;;;;;;2.90;2.10;;;40.50;44.50;;;;;;4970110;28;20586;-75
2023/09/08 09:44:15;;;;;;;4.10;2.50;;;40.30;43.60;;;;;;4978405;28;20609;-75
2023/09/08 09:46:45;;;;;;;2.90;2.60;;;40.10;43.90;;;;;;4967723;28;20626;-75
2023/09/08 09:49:14;;;;;;;2.43;1.97;;;39.90;42.50;;;;;;4968780;28;20583;-75
2023/09/08 09:51:42;;;;;;;2.33;1.90;;;39.90;44.00;;;;;;4962653;28;20643;-75
2023/09/08 09:54:08;;;;;;;2.87;2.33;;;40.00;44.00;;;;;;4972960;28;20598;-75
2023/09/08 09:56:37;;;;;;;4.50;2.20;;;40.00;43.90;;;;;;4983732;28;21012;-75
2023/09/08 09:59:04;;;;;;;2.57;2.03;;;40.20;43.50;;;;;;4970825;28;20579;-75
2023/09/08 10:01:30;;;;;;;3.70;1.97;;;40.40;44.20;;;;;;4973458;28;21141;-75
2023/09/08 10:03:57;;;;;;;2.73;2.00;;;40.80;44.20;;;;;;4981826;28;20637;-76
2023/09/08 10:06:25;;;;;;;2.17;1.80;;;41.10;44.10;;;;;;4972847;28;20602;-76
2023/09/08 10:08:51;;;;;;;3.57;2.27;;;41.30;43.30;;;;;;4982245;28;20617;-77
2023/09/08 10:11:21;;;;;;;2.30;2.07;;;41.20;42.40;;;;;;4972987;28;20676;-77
2023/09/08 10:13:51;;;;;;;6.30;2.33;;;41.20;42.00;;;;;;4984279;28;20587;-76
2023/09/08 10:16:20;;;;;;;3.37;2.67;;;41.00;41.20;;;;;;4974059;28;20948;-75
2023/09/08 10:18:49;;;;;;;6.80;2.10;;;40.80;41.20;;;;;;4981920;28;20624;-76
2023/09/08 10:21:17;;;;;;;2.97;2.67;;;40.80;41.60;;;;;;4983525;28;20669;-76
2023/09/08 10:23:54;;;;;;;4.30;2.50;;;40.90;41.60;;;;;;4972756;28;20598;-75
2023/09/08 10:26:24;;;;;;;5.30;2.87;;;41.00;40.30;;;;;;4971885;28;21145;-76
2023/09/08 10:28:55;;;;;;;3.50;2.23;;;40.90;41.10;;;;;;4970306;28;20617;-77
2023/09/08 10:31:22;;;;;;;2.42;2.22;;;41.00;41.80;;;;;;4972736;28;20791;-77
2023/09/08 10:33:48;;;;;;;4.40;2.70;;;40.70;40.10;;;;;;4982281;28;21160;-76
2023/09/08 10:36:15;;;;;;;3.40;2.60;;;40.40;40.60;;;;;;4982306;28;20678;-76
2023/09/08 10:38:41;;;;;;;2.83;2.13;;;40.20;40.60;;;;;;4981132;28;20583;-77
2023/09/08 10:41:16;;;;;;;3.90;3.47;;;40.00;41.10;;;;;;4981860;28;21216;-76
2023/09/08 10:43:45;;;;;;;3.70;3.00;;;39.80;41.30;;;;;;4972060;28;20697;-76
2023/09/08 10:46:21;;;;;;;3.30;3.00;;;39.60;40.80;;;;;;4972831;28;20601;-76
2023/09/08 10:48:47;;;;;;;2.23;2.03;;;39.50;40.90;;;;;;4972540;28;20594;-76
2023/09/08 10:51:14;;;;;;;3.30;2.60;;;39.40;41.10;;;;;;4980931;28;20626;-75
2023/09/08 10:53:40;;;;;;;4.63;2.13;;;39.40;41.20;;;;;;4981759;28;20207;-76
2023/09/08 10:56:06;;;;;;;3.57;2.37;;;39.30;41.40;;;;;;4971586;28;20582;-76
2023/09/08 10:58:42;;;;;;;4.03;2.17;;;39.30;41.40;;;;;;4981190;28;21289;-75
2023/09/08 11:01:12;;;;;;;4.90;1.90;;;39.30;41.30;;;;;;4972721;28;20210;-75
2023/09/08 11:03:37;;;;;;;4.30;2.17;;;39.50;41.80;;;;;;4982512;28;20736;-75
2023/09/08 11:06:07;;;;;;;3.37;2.20;;;39.60;41.50;;;;;;4969233;28;20689;-75
2023/09/08 11:08:34;;;;;;;3.03;1.87;;;39.50;41.10;;;;;;4971433;28;20192;-75
2023/09/08 11:11:00;;;;;;;2.50;2.07;;;39.40;40.70;;;;;;4980632;28;20602;-76
2023/09/08 11:13:28;;;;;;;3.23;2.77;;;39.30;41.10;;;;;;4980865;28;20725;-75
2023/09/08 11:15:54;;;;;;;3.20;2.10;;;39.20;40.90;;;;;;4972873;28;21389;-75
2023/09/08 11:18:27;;;;;;;5.60;2.77;;;39.30;41.10;;;;;;4979501;28;20830;-75
2023/09/08 11:20:53;;;;;;;4.63;2.40;;;39.20;40.50;;;;;;4965263;28;20631;-75
2023/09/08 11:23:20;;;;;;;3.77;2.10;;;39.30;40.90;;;;;;4980541;28;20602;-75
2023/09/08 11:25:46;;;;;;;3.03;2.40;;;39.10;40.80;;;;;;4982049;28;20590;-75
2023/09/08 11:28:13;;;;;;;3.10;2.13;;;38.80;40.60;;;;;;4971605;28;20694;-75
2023/09/08 11:30:39;;;;;;;2.90;2.57;;;38.50;40.30;;;;;;4982461;28;20606;-75
2023/09/08 11:33:14;;;;;;;4.07;2.30;;;38.40;40.70;;;;;;4982145;28;20657;-76
2023/09/08 11:35:40;;;;;;;2.93;2.07;;;38.40;40.80;;;;;;4980741;28;20578;-76
2023/09/08 11:38:09;;;;;;;3.43;1.97;;;38.50;41.10;;;;;;4970423;28;20765;-77
2023/09/08 11:40:36;;;;;;;4.33;1.90;;;38.40;41.20;;;;;;4964555;28;20590;-76
2023/09/08 11:43:03;;;;;;;3.70;1.80;;;38.40;40.70;;;;;;4979967;28;20924;-77
2023/09/08 11:45:30;;;;;;;2.63;2.20;;;38.30;40.80;;;;;;4981927;28;21153;-78
2023/09/08 11:47:57;;;;;;;2.30;2.00;;;38.30;40.90;;;;;;4979827;28;20944;-78
2023/09/08 11:50:23;;;;;;;3.17;2.10;;;38.20;40.90;;;;;;4982410;28;21091;-77
2023/09/08 11:52:51;;;;;;;2.90;2.20;;;38.10;40.80;;;;;;4970573;28;20630;-79
2023/09/08 11:55:19;;;;;;;2.30;2.00;;;38.00;40.90;;;;;;4979805;28;20586;-78
2023/09/08 11:57:48;;;;;;;3.53;2.40;;;37.90;40.70;;;;;;4982091;28;20590;-78
2023/09/08 12:00:16;;;;;;;2.27;2.00;;;37.80;40.90;;;;;;4982952;28;20626;-78
2023/09/08 12:02:42;;;;;;;3.40;2.50;;;37.70;41.10;;;;;;4962486;28;20584;-77
2023/09/08 12:05:28;;;;;;;2.13;1.60;;;37.70;41.00;;;;;;4977648;28;20621;-76
2023/09/08 12:07:58;;;;;;;3.30;2.33;;;37.50;41.20;;;;;;4973860;28;20187;-77
2023/09/08 12:10:25;;;;;;;6.53;2.47;;;37.60;41.10;;;;;;4982173;28;20617;-76
2023/09/08 12:12:55;;;;;;;4.30;2.30;;;37.40;41.40;;;;;;4991606;28;21212;-78
2023/09/08 12:15:41;;;;;;;4.67;2.53;;;37.30;40.90;;;;;;4980065;28;20594;-76
2023/09/08 12:18:11;;;;;;;2.40;1.97;;;37.30;41.20;;;;;;4973935;28;20585;-77
2023/09/08 12:20:39;;;;;;;3.20;1.70;;;37.30;41.10;;;;;;4984519;28;20615;-77
2023/09/08 12:23:08;;;;;;;2.13;1.83;;;37.30;41.30;;;;;;4976134;28;21102;-77
2023/09/08 12:25:45;;;;;;;2.50;2.10;;;37.30;41.60;;;;;;4972431;28;20594;-78
2023/09/08 12:28:10;;;;;;;2.53;2.30;;;37.40;42.10;;;;;;4967210;28;20601;-79
2023/09/08 12:30:37;;;;;;;3.07;1.70;;;37.40;41.30;;;;;;4990269;28;20617;-77
2023/09/08 12:33:03;;;;;;;3.67;2.10;;;37.30;41.10;;;;;;4964544;28;20630;-77
2023/09/08 12:35:29;;;;;;;2.17;1.70;;;37.20;41.20;;;;;;4989576;28;21245;-77
2023/09/08 12:38:01;;;;;;;2.63;2.10;;;37.30;41.60;;;;;;4971963;28;20187;-77
2023/09/08 12:40:28;;;;;;;3.60;1.60;;;37.30;41.60;;;;;;4968650;28;21054;-77
2023/09/08 12:42:55;;;;;;;3.23;2.10;;;37.40;41.70;;;;;;4980229;28;20681;-76
2023/09/08 12:45:22;;;;;;;2.73;2.23;;;37.30;41.50;;;;;;4980554;28;20591;-77
2023/09/08 12:47:48;;;;;;;3.53;2.57;;;37.20;41.30;;;;;;4987732;28;20641;-77